createdAt,value
2023-09-07T00:02:07.065Z,20.53
2023-09-07T00:04:39.686Z,20.51
2023-09-07T00:07:12.598Z,20.50
2023-09-07T00:09:45.254Z,20.54
2023-09-07T00:12:17.858Z,20.54
2023-09-07T00:14:50.415Z,20.54
2023-09-07T00:17:23.844Z,20.55
2023-09-07T00:19:58.224Z,20.55
2023-09-07T00:22:30.121Z,20.53
2023-09-07T00:25:02.350Z,20.58
2023-09-07T00:27:35.870Z,20.55
2023-09-07T00:30:11.127Z,20.55
2023-09-07T00:32:43.823Z,20.53
2023-09-07T00:35:16.440Z,20.48
2023-09-07T00:37:49.014Z,20.48
2023-09-07T00:40:21.703Z,20.48
2023-09-07T00:42:54.304Z,20.45
2023-09-07T00:45:26.990Z,20.39
2023-09-07T00:47:59.593Z,20.34
2023-09-07T00:50:32.247Z,20.36
2023-09-07T00:53:04.872Z,20.37
2023-09-07T00:55:37.503Z,20.35
2023-09-07T00:58:10.118Z,20.32
2023-09-07T01:00:42.746Z,20.29
2023-09-07T01:03:15.802Z,20.30
2023-09-07T01:06:06.241Z,20.32
2023-09-07T01:08:45.257Z,20.29
2023-09-07T01:11:27.785Z,20.26
2023-09-07T01:14:00.343Z,20.26
2023-09-07T01:16:35.466Z,20.25
2023-09-07T01:19:11.110Z,20.22
2023-09-07T01:21:43.658Z,20.18
2023-09-07T01:24:16.049Z,20.10
2023-09-07T01:26:50.046Z,20.03
2023-09-07T01:29:22.823Z,20.02
2023-09-07T01:31:56.463Z,20.00
2023-09-07T01:34:29.099Z,19.93
2023-09-07T01:37:01.966Z,19.82
2023-09-07T01:39:34.709Z,19.77
2023-09-07T01:42:07.132Z,19.72
2023-09-07T01:44:39.622Z,19.66
2023-09-07T01:47:12.530Z,19.60
2023-09-07T01:52:17.511Z,19.51
2023-09-07T01:54:50.602Z,19.56
2023-09-07T01:57:23.263Z,19.61
2023-09-07T01:59:56.060Z,19.63
2023-09-07T02:02:28.637Z,19.61
2023-09-07T02:05:01.276Z,19.59
2023-09-07T02:07:34.666Z,19.62
2023-09-07T02:10:08.678Z,19.65
2023-09-07T02:12:41.481Z,19.67
2023-09-07T02:15:15.686Z,19.61
2023-09-07T02:17:48.395Z,19.55
2023-09-07T02:20:26.509Z,19.49
2023-09-07T02:22:59.275Z,19.44
2023-09-07T02:25:31.991Z,19.38
2023-09-07T02:28:05.145Z,19.31
2023-09-07T02:30:38.194Z,19.35
2023-09-07T02:33:10.874Z,19.42
2023-09-07T02:35:43.937Z,19.45
2023-09-07T02:38:16.699Z,19.47
2023-09-07T02:40:49.764Z,19.41
2023-09-07T02:43:23.837Z,19.45
2023-09-07T02:45:57.447Z,19.42
2023-09-07T02:48:30.528Z,19.36
2023-09-07T02:51:04.442Z,19.29
2023-09-07T02:53:37.062Z,19.23
2023-09-07T02:56:11.325Z,19.19
2023-09-07T02:58:44.600Z,19.12
2023-09-07T03:01:18.774Z,19.07
2023-09-07T03:03:51.568Z,19.06
2023-09-07T03:06:24.492Z,19.07
2023-09-07T03:08:58.445Z,18.98
2023-09-07T03:11:32.653Z,18.87
2023-09-07T03:14:05.726Z,18.73
2023-09-07T03:19:24.479Z,18.51
2023-09-07T03:21:57.389Z,18.45
2023-09-07T03:24:31.905Z,18.42
2023-09-07T03:27:05.046Z,18.38
2023-09-07T03:29:38.313Z,18.35
2023-09-07T03:32:11.502Z,18.38
2023-09-07T03:34:44.141Z,18.37
2023-09-07T03:37:17.144Z,18.36
2023-09-07T03:39:49.483Z,18.34
2023-09-07T03:42:22.005Z,18.38
2023-09-07T03:44:55.065Z,18.37
2023-09-07T03:47:30.813Z,18.30
2023-09-07T03:50:03.379Z,18.22
2023-09-07T03:52:36.327Z,18.17
2023-09-07T03:55:10.758Z,18.12
2023-09-07T03:57:43.702Z,18.05
2023-09-07T04:00:17.127Z,17.99
2023-09-07T04:02:52.550Z,17.99
2023-09-07T04:05:25.254Z,18.00
2023-09-07T04:07:58.579Z,18.03
2023-09-07T04:10:31.020Z,18.05
2023-09-07T04:13:04.360Z,18.06
2023-09-07T04:15:45.736Z,18.09
2023-09-07T04:18:21.518Z,18.15
2023-09-07T04:20:57.615Z,18.20
2023-09-07T04:23:30.182Z,18.25
2023-09-07T04:26:12.949Z,18.32
2023-09-07T04:28:46.005Z,18.36
2023-09-07T04:31:18.875Z,18.42
2023-09-07T04:33:51.996Z,18.47
2023-09-07T04:36:25.029Z,18.52
2023-09-07T04:38:57.597Z,18.56
2023-09-07T04:41:30.311Z,18.68
2023-09-07T04:44:03.263Z,18.83
2023-09-07T04:46:36.088Z,19.00
2023-09-07T04:49:09.725Z,19.15
2023-09-07T04:51:42.416Z,19.30
2023-09-07T04:54:15.172Z,19.38
2023-09-07T04:56:48.078Z,19.47
2023-09-07T04:59:20.598Z,19.58
2023-09-07T05:01:52.945Z,19.70
2023-09-07T05:04:25.440Z,19.81
2023-09-07T05:06:59.529Z,19.90
2023-09-07T05:09:33.069Z,19.99
2023-09-07T05:12:05.764Z,20.09
2023-09-07T05:14:38.397Z,20.23
2023-09-07T05:17:10.866Z,20.46
2023-09-07T05:19:44.752Z,20.63
2023-09-07T05:22:19.461Z,20.74
2023-09-07T05:24:53.010Z,20.85
2023-09-07T05:27:25.591Z,21.03
2023-09-07T05:29:58.466Z,21.22
2023-09-07T05:32:31.106Z,21.38
2023-09-07T05:35:04.198Z,21.48
2023-09-07T05:37:37.878Z,21.64
2023-09-07T05:40:11.853Z,21.82
2023-09-07T05:42:44.707Z,22.02
2023-09-07T05:45:17.422Z,22.13
2023-09-07T05:47:50.499Z,22.22
2023-09-07T05:50:23.609Z,22.34
2023-09-07T05:52:56.268Z,22.47
2023-09-07T05:55:29.091Z,22.66
2023-09-07T05:58:05.277Z,22.89
2023-09-07T06:00:40.102Z,22.91
2023-09-07T06:03:13.101Z,22.86
2023-09-07T06:05:45.967Z,22.94
2023-09-07T06:08:28.583Z,23.05
2023-09-07T06:11:01.276Z,23.13
2023-09-07T06:13:34.796Z,23.21
2023-09-07T06:16:07.862Z,23.27
2023-09-07T06:18:41.028Z,23.43
2023-09-07T06:58:33.691Z,25.97
2023-09-07T07:01:07.413Z,25.92
2023-09-07T07:03:40.211Z,26.05
2023-09-07T07:06:12.950Z,26.18
2023-09-07T07:08:45.726Z,26.08
2023-09-07T07:11:18.390Z,26.24
2023-09-07T07:13:51.404Z,26.58
2023-09-07T07:16:24.442Z,26.82
2023-09-07T07:22:04.312Z,27.24
2023-09-07T07:24:38.367Z,27.36
2023-09-07T07:27:12.104Z,27.57
2023-09-07T07:29:45.825Z,27.55
2023-09-07T07:32:18.415Z,27.50
2023-09-07T07:34:52.726Z,27.55
2023-09-07T07:37:25.446Z,27.77
2023-09-07T07:39:58.001Z,27.99
2023-09-07T07:42:30.523Z,28.14
2023-09-07T07:45:03.125Z,28.21
2023-09-07T07:47:37.306Z,28.38
2023-09-07T07:50:10.769Z,28.46
2023-09-07T07:52:43.523Z,28.24
2023-09-07T07:55:16.394Z,28.21
2023-09-07T07:57:49.015Z,28.23
2023-09-07T08:00:22.188Z,28.40
2023-09-07T08:02:55.927Z,28.31
2023-09-07T08:05:28.739Z,28.22
2023-09-07T08:08:01.425Z,28.38
2023-09-07T08:10:41.990Z,28.59
2023-09-07T08:13:15.187Z,28.70
2023-09-07T08:15:49.359Z,28.72
2023-09-07T08:18:21.543Z,29.00
2023-09-07T08:20:55.373Z,29.20
2023-09-07T08:23:27.840Z,29.35
2023-09-07T08:26:01.480Z,29.43
2023-09-07T08:28:34.572Z,29.62
2023-09-07T08:31:07.399Z,29.74
2023-09-07T08:33:41.863Z,29.75
2023-09-07T08:36:16.020Z,29.73
2023-09-07T08:38:49.333Z,29.75
2023-09-07T08:41:21.897Z,29.80
2023-09-07T08:43:56.357Z,29.76
2023-09-07T08:46:29.021Z,29.51
2023-09-07T08:49:02.927Z,29.42
2023-09-07T08:51:37.617Z,29.46
2023-09-07T08:54:11.429Z,29.59
2023-09-07T08:56:43.931Z,29.55
2023-09-07T08:59:16.646Z,29.48
2023-09-07T09:01:49.158Z,29.43
2023-09-07T09:04:24.471Z,29.60
2023-09-07T09:06:57.138Z,29.74
2023-09-07T09:09:30.898Z,29.94
2023-09-07T09:12:16.985Z,30.03
2023-09-07T09:14:49.551Z,29.98
2023-09-07T09:17:21.966Z,29.80
2023-09-07T09:19:54.366Z,29.68
2023-09-07T09:22:26.768Z,29.38
2023-09-07T09:24:59.204Z,29.38
2023-09-07T09:27:31.776Z,29.45
2023-09-07T09:30:05.817Z,29.57
2023-09-07T09:32:38.730Z,29.90
2023-09-07T09:35:11.965Z,30.14
2023-09-07T09:37:50.226Z,29.93
2023-09-07T09:40:22.691Z,29.70
2023-09-07T09:42:55.264Z,29.70
2023-09-07T09:45:27.890Z,29.71
2023-09-07T09:48:04.488Z,29.75
2023-09-07T09:50:38.836Z,29.81
2023-09-07T09:53:11.512Z,29.81
2023-09-07T09:55:43.987Z,29.78
2023-09-07T09:58:19.502Z,29.95
2023-09-07T10:00:56.999Z,29.88
2023-09-07T10:03:44.859Z,29.91
2023-09-07T10:06:30.979Z,30.02
2023-09-07T10:09:08.717Z,30.11
2023-09-07T10:11:41.488Z,29.98
2023-09-07T10:14:15.738Z,30.11
2023-09-07T10:16:54.416Z,30.08
2023-09-07T10:19:27.752Z,30.07
2023-09-07T10:22:00.235Z,30.03
2023-09-07T10:24:39.356Z,30.00
2023-09-07T10:27:12.674Z,30.13
2023-09-07T10:29:56.422Z,30.27
2023-09-07T10:32:28.851Z,30.18
2023-09-07T10:35:02.922Z,29.99
2023-09-07T10:37:34.686Z,29.95
2023-09-07T10:40:10.140Z,29.99
2023-09-07T10:42:42.782Z,29.84
2023-09-07T10:45:17.599Z,29.78
2023-09-07T10:47:50.073Z,29.86
2023-09-07T10:50:23.047Z,30.18
2023-09-07T10:52:56.983Z,30.35
2023-09-07T10:55:29.673Z,30.48
2023-09-07T10:58:02.709Z,30.48
2023-09-07T11:00:35.461Z,30.51
2023-09-07T11:03:16.171Z,30.64
2023-09-07T11:05:49.154Z,30.61
2023-09-07T11:08:21.682Z,30.55
2023-09-07T11:10:54.488Z,30.82
2023-09-07T11:13:27.787Z,30.99
2023-09-07T11:16:01.340Z,30.73
2023-09-07T11:18:34.464Z,30.49
2023-09-07T11:21:08.769Z,30.49
2023-09-07T11:23:41.402Z,30.56
2023-09-07T11:26:14.200Z,30.58
2023-09-07T11:28:49.322Z,30.57
2023-09-07T11:31:22.920Z,30.72
2023-09-07T11:33:57.599Z,30.67
2023-09-07T11:36:30.057Z,30.53
2023-09-07T11:39:04.213Z,30.19
2023-09-07T11:41:36.996Z,30.03
2023-09-07T11:44:10.032Z,30.05
2023-09-07T11:46:42.606Z,30.08
2023-09-07T11:49:16.187Z,30.26
2023-09-07T11:51:48.984Z,30.33
2023-09-07T11:54:21.448Z,30.39
2023-09-07T11:56:53.881Z,30.32
2023-09-07T11:59:26.821Z,30.34
2023-09-07T12:01:59.742Z,30.36
2023-09-07T12:04:32.573Z,30.30
2023-09-07T12:07:05.504Z,30.20
2023-09-07T12:09:37.986Z,30.32
2023-09-07T12:12:12.208Z,30.41
2023-09-07T12:14:44.166Z,30.51
2023-09-07T12:17:16.655Z,30.41
2023-09-07T12:19:49.225Z,30.21
2023-09-07T12:22:21.797Z,30.17
2023-09-07T12:25:10.356Z,30.06
2023-09-07T12:27:32.060Z,29.75
2023-09-07T12:30:04.004Z,29.56
2023-09-07T12:32:37.051Z,29.03
2023-09-07T12:35:10.623Z,28.40
2023-09-07T12:37:43.184Z,27.87
2023-09-07T12:40:16.381Z,27.46
2023-09-07T12:42:49.324Z,27.05
2023-09-07T12:45:21.789Z,26.50
2023-09-07T12:47:54.607Z,26.15
2023-09-07T12:50:27.181Z,25.94
2023-09-07T12:52:59.934Z,25.77
2023-09-07T12:55:32.790Z,25.63
2023-09-07T12:58:05.663Z,25.45
2023-09-07T13:00:38.085Z,25.21
2023-09-07T13:03:10.625Z,24.96
2023-09-07T13:05:43.220Z,24.69
2023-09-07T13:08:15.735Z,24.60
2023-09-07T13:10:48.262Z,24.54
2023-09-07T13:13:22.665Z,24.48
2023-09-07T13:15:55.064Z,24.40
2023-09-07T13:18:27.967Z,24.23
2023-09-07T13:21:03.377Z,24.05
2023-09-07T13:23:36.066Z,23.96
2023-09-07T13:26:08.494Z,23.84
2023-09-07T13:28:41.774Z,23.74
2023-09-07T13:31:14.411Z,23.73
2023-09-07T13:33:46.996Z,23.75
2023-09-07T13:36:19.364Z,23.72
2023-09-07T13:38:53.331Z,23.67
2023-09-07T13:41:27.517Z,23.61
2023-09-07T13:44:00.305Z,23.56
2023-09-07T13:46:33.171Z,23.51
2023-09-07T13:49:05.750Z,23.41
2023-09-07T13:51:41.407Z,23.41
2023-09-07T13:54:13.769Z,23.38
2023-09-07T13:56:48.060Z,23.38
2023-09-07T13:59:20.505Z,23.36
2023-09-07T14:01:53.499Z,23.42
2023-09-07T14:04:26.740Z,23.50
2023-09-07T14:06:59.252Z,23.76
2023-09-07T14:09:31.822Z,24.02
2023-09-07T14:12:04.993Z,24.16
2023-09-07T14:14:37.504Z,24.31
2023-09-07T14:17:10.172Z,24.39
2023-09-07T14:19:42.819Z,24.43
2023-09-07T14:22:15.956Z,24.47
2023-09-07T14:24:48.391Z,24.50
2023-09-07T14:27:20.788Z,24.52
2023-09-07T14:29:54.118Z,24.51
2023-09-07T14:32:26.706Z,24.49
2023-09-07T14:34:59.698Z,24.41
2023-09-07T14:37:32.250Z,24.28
2023-09-07T14:40:04.946Z,24.19
2023-09-07T14:42:38.718Z,24.17
2023-09-07T14:45:12.041Z,24.15
2023-09-07T14:47:46.122Z,24.11
2023-09-07T14:50:18.855Z,24.05
2023-09-07T14:52:51.645Z,23.95
2023-09-07T14:55:24.832Z,23.77
2023-09-07T14:57:57.939Z,23.77
2023-09-07T15:00:32.623Z,23.71
2023-09-07T15:03:05.778Z,23.62
2023-09-07T15:05:38.678Z,23.43
2023-09-07T15:08:11.311Z,23.27
2023-09-07T15:10:43.983Z,23.27
2023-09-07T15:13:16.631Z,23.05
2023-09-07T15:15:49.184Z,22.76
2023-09-07T15:18:21.938Z,22.76
2023-09-07T15:20:55.144Z,22.51
2023-09-07T15:23:28.159Z,22.51
2023-09-07T15:26:00.752Z,22.42
2023-09-07T15:28:34.147Z,22.38
2023-09-07T15:31:07.177Z,22.30
2023-09-07T15:33:40.264Z,22.21
2023-09-07T15:36:14.754Z,22.14
2023-09-07T15:38:47.300Z,22.06
2023-09-07T15:41:19.879Z,22.00
2023-09-07T15:43:52.620Z,21.94
2023-09-07T15:46:26.098Z,21.91
2023-09-07T15:48:58.627Z,21.87
2023-09-07T15:51:32.040Z,21.81
2023-09-07T15:54:06.059Z,21.76
2023-09-07T15:56:38.699Z,21.73
2023-09-07T15:59:12.445Z,21.71
2023-09-07T16:01:45.272Z,21.68
2023-09-07T16:04:17.780Z,21.71
2023-09-07T16:06:50.448Z,21.80
2023-09-07T16:09:24.149Z,21.85
2023-09-07T16:11:57.013Z,21.83
2023-09-07T16:14:31.208Z,21.79
2023-09-07T16:17:03.859Z,21.76
2023-09-07T16:19:36.376Z,21.75
2023-09-07T16:22:10.178Z,21.74
2023-09-07T16:24:42.805Z,21.72
2023-09-07T16:27:15.188Z,21.74
2023-09-07T16:29:47.923Z,21.74
2023-09-07T16:32:20.540Z,21.72
2023-09-07T16:34:54.418Z,21.71
2023-09-07T16:37:27.725Z,21.71
2023-09-07T16:40:00.402Z,21.69
2023-09-07T16:42:33.559Z,21.66
2023-09-07T16:45:07.089Z,21.64
2023-09-07T16:47:39.606Z,21.60
2023-09-07T16:50:12.419Z,21.59
2023-09-07T16:52:45.064Z,21.59
2023-09-07T16:55:17.564Z,21.56
2023-09-07T16:57:50.400Z,21.51
2023-09-07T17:00:22.977Z,21.47
2023-09-07T17:02:55.740Z,21.43
2023-09-07T17:05:28.342Z,21.42
2023-09-07T17:08:00.941Z,21.42
2023-09-07T17:10:35.622Z,21.41
2023-09-07T17:13:08.354Z,21.33
2023-09-07T17:15:41.036Z,21.24
2023-09-07T17:18:13.880Z,21.22
2023-09-07T17:20:46.486Z,21.20
2023-09-07T17:23:19.292Z,21.19
2023-09-07T17:25:51.898Z,21.17
2023-09-07T17:28:24.813Z,21.17
2023-09-07T17:30:57.799Z,21.21
2023-09-07T17:33:30.646Z,21.21
2023-09-07T17:36:03.250Z,21.20
2023-09-07T17:38:36.365Z,21.15
2023-09-07T17:41:10.748Z,21.11
2023-09-07T17:43:43.585Z,21.02
2023-09-07T17:46:15.990Z,20.99
2023-09-07T17:48:48.844Z,20.96
2023-09-07T17:51:21.265Z,20.98
2023-09-07T17:53:54.606Z,20.96
2023-09-07T17:56:27.114Z,20.88
2023-09-07T17:59:00.559Z,20.78
2023-09-07T18:01:33.195Z,20.68
2023-09-07T18:04:06.389Z,20.61
2023-09-07T18:06:38.817Z,20.51
2023-09-07T18:09:11.386Z,20.44
2023-09-07T18:11:45.420Z,20.37
2023-09-07T18:14:18.023Z,20.32
2023-09-07T18:16:50.527Z,20.25
2023-09-07T18:19:23.129Z,20.19
2023-09-07T18:21:55.555Z,20.12
2023-09-07T18:24:28.421Z,20.08
2023-09-07T18:27:01.954Z,20.02
2023-09-07T18:29:36.229Z,19.96
2023-09-07T18:32:09.314Z,19.96
2023-09-07T18:34:41.898Z,19.92
2023-09-07T18:37:14.922Z,19.91
2023-09-07T18:39:47.623Z,19.91
2023-09-07T18:42:20.189Z,19.91
2023-09-07T18:44:54.320Z,19.88
2023-09-07T18:47:27.239Z,19.81
2023-09-07T18:49:59.827Z,19.73
2023-09-07T18:52:32.928Z,19.65
2023-09-07T18:55:09.408Z,19.59
2023-09-07T18:57:42.022Z,19.53
2023-09-07T19:00:16.763Z,19.48
2023-09-07T19:02:50.464Z,19.44
2023-09-07T19:05:23.110Z,19.41
2023-09-07T19:07:55.719Z,19.35
2023-09-07T19:10:28.589Z,19.32
2023-09-07T19:13:01.605Z,19.28
2023-09-07T19:15:34.268Z,19.23
2023-09-07T19:18:07.857Z,19.18
2023-09-07T19:20:40.733Z,19.13
2023-09-07T19:23:13.287Z,19.11
2023-09-07T19:25:45.659Z,19.08
2023-09-07T19:28:18.236Z,19.03
2023-09-07T19:30:50.714Z,18.98
2023-09-07T19:33:23.459Z,18.91
2023-09-07T19:35:55.942Z,18.88
2023-09-07T19:38:28.326Z,18.85
2023-09-07T19:41:00.964Z,18.82
2023-09-07T19:43:33.391Z,18.79
2023-09-07T19:46:06.012Z,18.75
2023-09-07T19:48:39.716Z,18.72
2023-09-07T19:51:20.207Z,18.69
2023-09-07T19:53:52.778Z,18.73
2023-09-07T19:56:27.819Z,18.71
2023-09-07T19:59:00.538Z,18.69
2023-09-07T20:01:35.662Z,18.63
2023-09-07T20:04:13.152Z,18.57
2023-09-07T20:06:45.763Z,18.50
2023-09-07T20:09:19.162Z,18.43
2023-09-07T20:11:51.584Z,18.39
2023-09-07T20:14:24.181Z,18.35
2023-09-07T20:16:56.610Z,18.29
2023-09-07T20:19:32.389Z,18.24
2023-09-07T20:22:04.810Z,18.24
2023-09-07T20:24:37.469Z,18.19
2023-09-07T20:27:09.856Z,18.14
2023-09-07T20:29:42.417Z,18.11
2023-09-07T20:32:15.011Z,18.06
2023-09-07T20:34:47.598Z,18.02
2023-09-07T20:37:20.060Z,17.96
2023-09-07T20:39:54.144Z,17.90
2023-09-07T20:42:26.762Z,17.85
2023-09-07T20:44:59.278Z,17.83
2023-09-07T20:47:31.973Z,17.78
2023-09-07T20:50:04.709Z,17.73
2023-09-07T20:52:37.277Z,17.69
2023-09-07T20:55:11.047Z,17.65
2023-09-07T20:57:43.522Z,17.62
2023-09-07T21:00:16.878Z,17.58
2023-09-07T21:02:50.053Z,17.56
2023-09-07T21:05:22.759Z,17.52
2023-09-07T21:07:56.937Z,17.49
2023-09-07T21:10:29.393Z,17.46
2023-09-07T21:13:02.050Z,17.44
2023-09-07T21:15:34.425Z,17.44
2023-09-07T21:18:07.994Z,17.47
2023-09-07T21:20:40.560Z,17.49
2023-09-07T21:23:12.982Z,17.58
2023-09-07T21:25:45.449Z,17.67
2023-09-07T21:28:17.925Z,17.81
2023-09-07T21:30:50.528Z,17.85
2023-09-07T21:33:23.113Z,17.85
2023-09-07T21:35:56.842Z,17.80
2023-09-07T21:38:29.241Z,17.74
2023-09-07T21:41:01.823Z,17.73
2023-09-07T21:43:34.366Z,17.70
2023-09-07T21:46:06.964Z,17.71
2023-09-07T21:48:39.590Z,17.71
2023-09-07T21:51:13.364Z,17.68
2023-09-07T21:53:46.039Z,17.70
2023-09-07T21:56:18.691Z,17.70
2023-09-07T21:58:51.498Z,17.65
2023-09-07T22:01:23.825Z,17.60
2023-09-07T22:03:56.399Z,17.50
2023-09-07T22:06:29.342Z,17.47
2023-09-07T22:09:02.764Z,17.43
2023-09-07T22:11:35.242Z,17.39
2023-09-07T22:14:07.728Z,17.34
2023-09-07T22:16:41.069Z,17.29
2023-09-07T22:19:13.945Z,17.22
2023-09-07T22:21:46.618Z,17.21
2023-09-07T22:24:19.184Z,17.22
2023-09-07T22:26:52.664Z,17.18
2023-09-07T22:29:26.050Z,17.15
2023-09-07T22:31:58.492Z,17.20
2023-09-07T22:34:32.728Z,17.24
2023-09-07T22:37:05.220Z,17.22
2023-09-07T22:39:37.826Z,17.19
2023-09-07T22:42:10.299Z,17.15
2023-09-07T22:44:42.821Z,17.09
2023-09-07T22:47:15.273Z,17.04
2023-09-07T22:49:47.700Z,17.03
2023-09-07T22:52:19.972Z,17.07
2023-09-07T22:54:52.371Z,17.06
2023-09-07T22:57:24.952Z,17.09
2023-09-07T22:59:57.933Z,17.17
2023-09-07T23:02:30.501Z,17.28
2023-09-07T23:05:02.974Z,17.39
2023-09-07T23:07:35.695Z,17.40
2023-09-07T23:10:08.679Z,17.33
2023-09-07T23:12:41.883Z,17.29
2023-09-07T23:15:14.371Z,17.27
2023-09-07T23:17:48.894Z,17.24
2023-09-07T23:20:21.003Z,17.26
2023-09-07T23:22:53.199Z,17.30
2023-09-07T23:25:25.799Z,17.23
2023-09-07T23:27:59.152Z,17.17
2023-09-07T23:30:31.704Z,17.06
2023-09-07T23:33:05.658Z,17.05
2023-09-07T23:35:38.091Z,17.03
2023-09-07T23:38:10.579Z,17.00
2023-09-07T23:40:43.983Z,16.98
2023-09-07T23:43:16.649Z,17.02
2023-09-07T23:45:49.108Z,17.09
2023-09-07T23:48:21.813Z,17.13
2023-09-07T23:50:54.204Z,17.14
2023-09-07T23:53:26.963Z,17.18
2023-09-07T23:55:59.936Z,17.19
2023-09-07T23:58:32.841Z,17.09
